sensor_id;sensor_type;location;lat;lon;timestamp;P1;durP1;ratioP1;P2;durP2;ratioP2
215;SDS011;64590;48.81286795;9.14184224;2023-04-12T00:01:49;7.40;;;3.20;;
215;SDS011;64590;48.81286795;9.14184224;2023-04-12T00:04:15;11.07;;;3.20;;
215;SDS011;64590;48.81286795;9.14184224;2023-04-12T00:06:43;5.73;;;2.87;;
215;SDS011;64590;48.81286795;9.14184224;2023-04-12T00:09:12;5.70;;;2.97;;
215;SDS011;64590;48.81286795;9.14184224;2023-04-12T00:11:40;8.20;;;2.93;;
215;SDS011;64590;48.81286795;9.14184224;2023-04-12T00:14:07;7.53;;;2.90;;
215;SDS011;64590;48.81286795;9.14184224;2023-04-12T00:16:33;6.23;;;3.10;;
215;SDS011;64590;48.81286795;9.14184224;2023-04-12T00:19:01;10.90;;;4.93;;
215;SDS011;64590;48.81286795;9.14184224;2023-04-12T00:21:27;10.40;;;3.77;;
215;SDS011;64590;48.81286795;9.14184224;2023-04-12T00:23:56;8.90;;;3.00;;
215;SDS011;64590;48.81286795;9.14184224;2023-04-12T00:26:22;8.07;;;3.00;;
215;SDS011;64590;48.81286795;9.14184224;2023-04-12T00:28:50;7.40;;;3.07;;
215;SDS011;64590;48.81286795;9.14184224;2023-04-12T00:31:18;8.87;;;2.90;;
215;SDS011;64590;48.81286795;9.14184224;2023-04-12T00:33:44;7.33;;;3.07;;
215;SDS011;64590;48.81286795;9.14184224;2023-04-12T00:36:11;9.30;;;3.20;;
215;SDS011;64590;48.81286795;9.14184224;2023-04-12T00:38:40;7.07;;;3.20;;
215;SDS011;64590;48.81286795;9.14184224;2023-04-12T00:41:08;10.00;;;3.10;;
215;SDS011;64590;48.81286795;9.14184224;2023-04-12T00:43:34;7.63;;;3.13;;
215;SDS011;64590;48.81286795;9.14184224;2023-04-12T00:46:01;8.07;;;3.40;;
215;SDS011;64590;48.81286795;9.14184224;2023-04-12T00:48:28;10.73;;;3.43;;
215;SDS011;64590;48.81286795;9.14184224;2023-04-12T00:50:56;7.40;;;3.30;;
215;SDS011;64590;48.81286795;9.14184224;2023-04-12T00:53:22;7.00;;;3.40;;
215;SDS011;64590;48.81286795;9.14184224;2023-04-12T00:55:49;9.87;;;3.70;;
215;SDS011;64590;48.81286795;9.14184224;2023-04-12T00:58:18;8.10;;;3.90;;
215;SDS011;64590;48.81286795;9.14184224;2023-04-12T01:00:45;9.13;;;3.60;;
215;SDS011;64590;48.81286795;9.14184224;2023-04-12T01:03:17;8.23;;;3.80;;
215;SDS011;64590;48.81286795;9.14184224;2023-04-12T01:05:49;8.43;;;3.57;;
215;SDS011;64590;48.81286795;9.14184224;2023-04-12T01:08:23;8.77;;;3.80;;
215;SDS011;64590;48.81286795;9.14184224;2023-04-12T01:11:00;7.70;;;3.80;;
215;SDS011;64590;48.81286795;9.14184224;2023-04-12T01:13:38;10.47;;;3.97;;
215;SDS011;64590;48.81286795;9.14184224;2023-04-12T01:16:08;12.73;;;3.63;;
215;SDS011;64590;48.81286795;9.14184224;2023-04-12T01:18:40;8.83;;;3.80;;
215;SDS011;64590;48.81286795;9.14184224;2023-04-12T01:21:15;9.97;;;3.90;;
215;SDS011;64590;48.81286795;9.14184224;2023-04-12T01:23:52;8.73;;;3.67;;
215;SDS011;64590;48.81286795;9.14184224;2023-04-12T01:26:30;7.80;;;3.60;;
215;SDS011;64590;48.81286795;9.14184224;2023-04-12T01:29:03;10.77;;;3.90;;
215;SDS011;64590;48.81286795;9.14184224;2023-04-12T01:31:35;10.57;;;3.90;;
215;SDS011;64590;48.81286795;9.14184224;2023-04-12T01:34:04;10.10;;;4.27;;
215;SDS011;64590;48.81286795;9.14184224;2023-04-12T01:36:34;8.50;;;4.00;;
215;SDS011;64590;48.81286795;9.14184224;2023-04-12T01:39:03;7.50;;;3.63;;
215;SDS011;64590;48.81286795;9.14184224;2023-04-12T01:41:31;10.40;;;3.63;;
215;SDS011;64590;48.81286795;9.14184224;2023-04-12T01:43:58;12.03;;;4.60;;
215;SDS011;64590;48.81286795;9.14184224;2023-04-12T01:46:26;11.20;;;4.00;;
215;SDS011;64590;48.81286795;9.14184224;2023-04-12T01:48:52;11.67;;;4.03;;
215;SDS011;64590;48.81286795;9.14184224;2023-04-12T01:51:24;9.27;;;3.67;;
215;SDS011;64590;48.81286795;9.14184224;2023-04-12T01:53:58;8.00;;;3.80;;
215;SDS011;64590;48.81286795;9.14184224;2023-04-12T01:56:29;9.20;;;4.07;;
215;SDS011;64590;48.81286795;9.14184224;2023-04-12T01:59:01;9.50;;;4.30;;
215;SDS011;64590;48.81286795;9.14184224;2023-04-12T02:01:31;10.87;;;4.30;;
215;SDS011;64590;48.81286795;9.14184224;2023-04-12T02:03:57;8.53;;;4.07;;
215;SDS011;64590;48.81286795;9.14184224;2023-04-12T02:06:28;12.83;;;3.87;;
215;SDS011;64590;48.81286795;9.14184224;2023-04-12T02:08:56;10.17;;;3.93;;
215;SDS011;64590;48.81286795;9.14184224;2023-04-12T02:11:24;11.23;;;4.00;;
215;SDS011;64590;48.81286795;9.14184224;2023-04-12T02:13:50;10.77;;;4.20;;
215;SDS011;64590;48.81286795;9.14184224;2023-04-12T02:16:18;10.87;;;3.77;;
215;SDS011;64590;48.81286795;9.14184224;2023-04-12T02:18:48;8.60;;;3.97;;
215;SDS011;64590;48.81286795;9.14184224;2023-04-12T02:21:15;8.73;;;3.73;;
215;SDS011;64590;48.81286795;9.14184224;2023-04-12T02:23:41;8.73;;;4.13;;
215;SDS011;64590;48.81286795;9.14184224;2023-04-12T02:26:10;6.93;;;3.80;;
215;SDS011;64590;48.81286795;9.14184224;2023-04-12T02:28:37;11.07;;;3.70;;
215;SDS011;64590;48.81286795;9.14184224;2023-04-12T02:31:06;10.53;;;3.77;;
215;SDS011;64590;48.81286795;9.14184224;2023-04-12T02:33:34;9.90;;;3.70;;
215;SDS011;64590;48.81286795;9.14184224;2023-04-12T02:36:04;8.20;;;3.93;;
215;SDS011;64590;48.81286795;9.14184224;2023-04-12T02:38:35;9.83;;;3.90;;
215;SDS011;64590;48.81286795;9.14184224;2023-04-12T02:41:04;8.63;;;3.47;;
215;SDS011;64590;48.81286795;9.14184224;2023-04-12T02:43:32;9.93;;;4.07;;
215;SDS011;64590;48.81286795;9.14184224;2023-04-12T02:46:03;11.03;;;4.03;;
215;SDS011;64590;48.81286795;9.14184224;2023-04-12T02:48:37;7.20;;;4.10;;
215;SDS011;64590;48.81286795;9.14184224;2023-04-12T02:51:06;9.40;;;4.17;;
215;SDS011;64590;48.81286795;9.14184224;2023-04-12T02:53:49;8.90;;;3.97;;
215;SDS011;64590;48.81286795;9.14184224;2023-04-12T02:56:20;9.90;;;4.30;;
215;SDS011;64590;48.81286795;9.14184224;2023-04-12T02:58:53;10.80;;;4.33;;
215;SDS011;64590;48.81286795;9.14184224;2023-04-12T03:01:33;8.57;;;3.70;;
215;SDS011;64590;48.81286795;9.14184224;2023-04-12T03:04:19;7.60;;;3.70;;
215;SDS011;64590;48.81286795;9.14184224;2023-04-12T03:06:53;8.33;;;3.97;;
215;SDS011;64590;48.81286795;9.14184224;2023-04-12T03:09:28;9.20;;;4.00;;
215;SDS011;64590;48.81286795;9.14184224;2023-04-12T03:11:56;7.33;;;3.93;;
215;SDS011;64590;48.81286795;9.14184224;2023-04-12T03:14:23;9.20;;;4.73;;
215;SDS011;64590;48.81286795;9.14184224;2023-04-12T03:16:51;8.60;;;4.30;;
215;SDS011;64590;48.81286795;9.14184224;2023-04-12T03:19:18;9.50;;;4.30;;
215;SDS011;64590;48.81286795;9.14184224;2023-04-12T03:21:50;10.33;;;4.53;;
215;SDS011;64590;48.81286795;9.14184224;2023-04-12T03:24:19;9.83;;;4.50;;
215;SDS011;64590;48.81286795;9.14184224;2023-04-12T03:26:45;10.63;;;4.00;;
215;SDS011;64590;48.81286795;9.14184224;2023-04-12T03:29:18;13.87;;;4.67;;
215;SDS011;64590;48.81286795;9.14184224;2023-04-12T03:31:47;10.67;;;4.23;;
215;SDS011;64590;48.81286795;9.14184224;2023-04-12T03:34:13;10.23;;;4.53;;
215;SDS011;64590;48.81286795;9.14184224;2023-04-12T03:36:44;10.07;;;4.67;;
215;SDS011;64590;48.81286795;9.14184224;2023-04-12T03:39:21;9.73;;;4.67;;
215;SDS011;64590;48.81286795;9.14184224;2023-04-12T03:41:50;12.93;;;4.50;;
215;SDS011;64590;48.81286795;9.14184224;2023-04-12T03:44:18;10.17;;;4.60;;
215;SDS011;64590;48.81286795;9.14184224;2023-04-12T03:46:46;9.67;;;4.97;;
215;SDS011;64590;48.81286795;9.14184224;2023-04-12T03:49:15;11.80;;;4.77;;
215;SDS011;64590;48.81286795;9.14184224;2023-04-12T03:51:43;12.87;;;5.80;;
215;SDS011;64590;48.81286795;9.14184224;2023-04-12T03:54:10;10.77;;;5.17;;
215;SDS011;64590;48.81286795;9.14184224;2023-04-12T03:56:49;20.83;;;11.10;;
215;SDS011;64590;48.81286795;9.14184224;2023-04-12T03:59:23;13.80;;;5.67;;
215;SDS011;64590;48.81286795;9.14184224;2023-04-12T04:01:49;9.50;;;4.30;;
215;SDS011;64590;48.81286795;9.14184224;2023-04-12T04:04:16;8.57;;;4.23;;
215;SDS011;64590;48.81286795;9.14184224;2023-04-12T04:06:43;10.87;;;4.37;;
215;SDS011;64590;48.81286795;9.14184224;2023-04-12T04:09:10;10.87;;;5.03;;
215;SDS011;64590;48.81286795;9.14184224;2023-04-12T04:11:37;10.33;;;4.43;;
215;SDS011;64590;48.81286795;9.14184224;2023-04-12T04:14:06;9.97;;;5.27;;
215;SDS011;64590;48.81286795;9.14184224;2023-04-12T04:16:34;12.63;;;5.50;;
215;SDS011;64590;48.81286795;9.14184224;2023-04-12T04:19:03;9.60;;;4.93;;
215;SDS011;64590;48.81286795;9.14184224;2023-04-12T04:21:29;10.00;;;4.60;;
215;SDS011;64590;48.81286795;9.14184224;2023-04-12T04:23:57;9.63;;;4.87;;
215;SDS011;64590;48.81286795;9.14184224;2023-04-12T04:26:25;8.53;;;4.70;;
215;SDS011;64590;48.81286795;9.14184224;2023-04-12T04:28:59;8.83;;;4.50;;
215;SDS011;64590;48.81286795;9.14184224;2023-04-12T04:31:34;8.33;;;4.70;;
215;SDS011;64590;48.81286795;9.14184224;2023-04-12T04:34:03;9.40;;;4.87;;
215;SDS011;64590;48.81286795;9.14184224;2023-04-12T04:36:32;8.63;;;4.40;;
215;SDS011;64590;48.81286795;9.14184224;2023-04-12T04:39:00;6.57;;;4.10;;
215;SDS011;64590;48.81286795;9.14184224;2023-04-12T04:41:37;8.83;;;4.43;;
215;SDS011;64590;48.81286795;9.14184224;2023-04-12T04:44:08;8.20;;;4.77;;
215;SDS011;64590;48.81286795;9.14184224;2023-04-12T04:46:40;9.50;;;4.93;;
215;SDS011;64590;48.81286795;9.14184224;2023-04-12T04:49:06;12.27;;;5.40;;
215;SDS011;64590;48.81286795;9.14184224;2023-04-12T04:51:33;8.03;;;5.00;;
215;SDS011;64590;48.81286795;9.14184224;2023-04-12T04:54:02;10.13;;;5.50;;
215;SDS011;64590;48.81286795;9.14184224;2023-04-12T04:56:29;13.63;;;5.57;;
215;SDS011;64590;48.81286795;9.14184224;2023-04-12T04:58:56;12.00;;;5.70;;
215;SDS011;64590;48.81286795;9.14184224;2023-04-12T05:01:25;11.57;;;5.80;;
215;SDS011;64590;48.81286795;9.14184224;2023-04-12T05:03:54;8.30;;;5.30;;
215;SDS011;64590;48.81286795;9.14184224;2023-04-12T05:06:22;8.73;;;5.20;;
215;SDS011;64590;48.81286795;9.14184224;2023-04-12T05:08:49;13.10;;;5.60;;
215;SDS011;64590;48.81286795;9.14184224;2023-04-12T05:11:16;11.37;;;5.60;;
215;SDS011;64590;48.81286795;9.14184224;2023-04-12T05:13:43;12.00;;;5.80;;
215;SDS011;64590;48.81286795;9.14184224;2023-04-12T05:16:10;9.77;;;5.40;;
215;SDS011;64590;48.81286795;9.14184224;2023-04-12T05:18:38;10.83;;;5.60;;
215;SDS011;64590;48.81286795;9.14184224;2023-04-12T05:21:06;10.60;;;4.83;;
215;SDS011;64590;48.81286795;9.14184224;2023-04-12T05:23:33;14.87;;;6.10;;
215;SDS011;64590;48.81286795;9.14184224;2023-04-12T05:26:01;8.97;;;6.00;;
215;SDS011;64590;48.81286795;9.14184224;2023-04-12T05:28:29;12.70;;;6.70;;
215;SDS011;64590;48.81286795;9.14184224;2023-04-12T05:30:55;9.50;;;5.63;;
215;SDS011;64590;48.81286795;9.14184224;2023-04-12T05:33:30;11.40;;;5.70;;
215;SDS011;64590;48.81286795;9.14184224;2023-04-12T05:35:59;9.10;;;5.17;;
215;SDS011;64590;48.81286795;9.14184224;2023-04-12T05:38:28;11.50;;;5.60;;
215;SDS011;64590;48.81286795;9.14184224;2023-04-12T05:40:58;9.70;;;5.53;;
215;SDS011;64590;48.81286795;9.14184224;2023-04-12T05:43:29;11.47;;;6.00;;
215;SDS011;64590;48.81286795;9.14184224;2023-04-12T05:45:56;9.37;;;5.77;;
215;SDS011;64590;48.81286795;9.14184224;2023-04-12T05:48:23;9.37;;;5.33;;
215;SDS011;64590;48.81286795;9.14184224;2023-04-12T05:50:52;9.40;;;5.83;;
215;SDS011;64590;48.81286795;9.14184224;2023-04-12T05:53:21;14.97;;;7.47;;
215;SDS011;64590;48.81286795;9.14184224;2023-04-12T05:55:50;9.90;;;5.20;;
215;SDS011;64590;48.81286795;9.14184224;2023-04-12T05:58:18;10.83;;;6.07;;
215;SDS011;64590;48.81286795;9.14184224;2023-04-12T06:00:51;7.53;;;5.00;;
215;SDS011;64590;48.81286795;9.14184224;2023-04-12T06:03:18;8.40;;;4.93;;
215;SDS011;64590;48.81286795;9.14184224;2023-04-12T06:05:45;9.77;;;5.37;;
215;SDS011;64590;48.81286795;9.14184224;2023-04-12T06:08:12;7.97;;;4.70;;
215;SDS011;64590;48.81286795;9.14184224;2023-04-12T06:10:40;8.17;;;4.67;;
215;SDS011;64590;48.81286795;9.14184224;2023-04-12T06:13:08;7.30;;;4.40;;
215;SDS011;64590;48.81286795;9.14184224;2023-04-12T06:15:39;9.57;;;5.13;;
215;SDS011;64590;48.81286795;9.14184224;2023-04-12T06:18:06;8.27;;;4.57;;
215;SDS011;64590;48.81286795;9.14184224;2023-04-12T06:20:32;9.10;;;4.50;;
215;SDS011;64590;48.81286795;9.14184224;2023-04-12T06:22:59;7.37;;;4.33;;
215;SDS011;64590;48.81286795;9.14184224;2023-04-12T06:25:26;10.70;;;4.83;;
215;SDS011;64590;48.81286795;9.14184224;2023-04-12T06:27:54;7.20;;;4.30;;
215;SDS011;64590;48.81286795;9.14184224;2023-04-12T06:30:24;8.43;;;4.60;;
215;SDS011;64590;48.81286795;9.14184224;2023-04-12T06:32:52;7.30;;;4.80;;
215;SDS011;64590;48.81286795;9.14184224;2023-04-12T06:35:20;7.70;;;4.57;;
215;SDS011;64590;48.81286795;9.14184224;2023-04-12T06:37:47;9.63;;;4.93;;
215;SDS011;64590;48.81286795;9.14184224;2023-04-12T06:40:13;8.80;;;5.00;;
215;SDS011;64590;48.81286795;9.14184224;2023-04-12T06:42:40;7.77;;;4.40;;
215;SDS011;64590;48.81286795;9.14184224;2023-04-12T06:45:08;7.37;;;3.90;;
215;SDS011;64590;48.81286795;9.14184224;2023-04-12T06:47:37;14.03;;;4.70;;
215;SDS011;64590;48.81286795;9.14184224;2023-04-12T06:50:04;7.10;;;4.20;;
215;SDS011;64590;48.81286795;9.14184224;2023-04-12T06:52:31;7.87;;;4.30;;
215;SDS011;64590;48.81286795;9.14184224;2023-04-12T06:54:58;7.90;;;4.13;;
215;SDS011;64590;48.81286795;9.14184224;2023-04-12T06:57:25;8.90;;;4.70;;
215;SDS011;64590;48.81286795;9.14184224;2023-04-12T06:59:51;9.27;;;4.40;;
215;SDS011;64590;48.81286795;9.14184224;2023-04-12T07:02:18;9.43;;;4.80;;
215;SDS011;64590;48.81286795;9.14184224;2023-04-12T07:04:46;6.07;;;4.17;;
215;SDS011;64590;48.81286795;9.14184224;2023-04-12T07:07:12;6.67;;;4.43;;
215;SDS011;64590;48.81286795;9.14184224;2023-04-12T07:09:39;7.57;;;4.33;;
215;SDS011;64590;48.81286795;9.14184224;2023-04-12T07:12:07;7.50;;;4.20;;
215;SDS011;64590;48.81286795;9.14184224;2023-04-12T07:14:33;8.43;;;4.30;;
215;SDS011;64590;48.81286795;9.14184224;2023-04-12T07:17:00;10.43;;;4.30;;
215;SDS011;64590;48.81286795;9.14184224;2023-04-12T07:19:26;7.27;;;4.13;;
215;SDS011;64590;48.81286795;9.14184224;2023-04-12T07:21:55;11.43;;;4.23;;
215;SDS011;64590;48.81286795;9.14184224;2023-04-12T07:24:22;7.70;;;4.20;;
215;SDS011;64590;48.81286795;9.14184224;2023-04-12T07:26:48;6.30;;;4.10;;
215;SDS011;64590;48.81286795;9.14184224;2023-04-12T07:29:18;9.03;;;4.13;;
215;SDS011;64590;48.81286795;9.14184224;2023-04-12T07:31:44;6.40;;;3.77;;
215;SDS011;64590;48.81286795;9.14184224;2023-04-12T07:34:11;7.43;;;3.80;;
215;SDS011;64590;48.81286795;9.14184224;2023-04-12T07:36:38;6.33;;;4.10;;
215;SDS011;64590;48.81286795;9.14184224;2023-04-12T07:39:06;7.60;;;3.90;;
215;SDS011;64590;48.81286795;9.14184224;2023-04-12T07:41:36;5.70;;;3.57;;
215;SDS011;64590;48.81286795;9.14184224;2023-04-12T07:44:02;6.17;;;3.90;;
215;SDS011;64590;48.81286795;9.14184224;2023-04-12T07:46:29;6.27;;;3.60;;
215;SDS011;64590;48.81286795;9.14184224;2023-04-12T07:48:56;5.73;;;3.60;;
215;SDS011;64590;48.81286795;9.14184224;2023-04-12T07:51:22;9.30;;;3.40;;
215;SDS011;64590;48.81286795;9.14184224;2023-04-12T07:53:49;7.57;;;3.50;;
215;SDS011;64590;48.81286795;9.14184224;2023-04-12T07:56:17;7.83;;;3.10;;
215;SDS011;64590;48.81286795;9.14184224;2023-04-12T07:58:44;6.83;;;3.20;;
215;SDS011;64590;48.81286795;9.14184224;2023-04-12T08:01:10;7.10;;;3.40;;
215;SDS011;64590;48.81286795;9.14184224;2023-04-12T08:03:38;5.73;;;3.80;;
215;SDS011;64590;48.81286795;9.14184224;2023-04-12T08:06:05;6.53;;;3.20;;
215;SDS011;64590;48.81286795;9.14184224;2023-04-12T08:08:32;6.13;;;3.27;;
215;SDS011;64590;48.81286795;9.14184224;2023-04-12T08:10:59;5.10;;;3.37;;
215;SDS011;64590;48.81286795;9.14184224;2023-04-12T08:13:28;7.53;;;3.50;;
215;SDS011;64590;48.81286795;9.14184224;2023-04-12T08:15:54;6.47;;;3.40;;
215;SDS011;64590;48.81286795;9.14184224;2023-04-12T08:18:21;7.50;;;3.67;;
215;SDS011;64590;48.81286795;9.14184224;2023-04-12T08:20:47;7.13;;;3.30;;
215;SDS011;64590;48.81286795;9.14184224;2023-04-12T08:23:14;6.23;;;3.33;;
215;SDS011;64590;48.81286795;9.14184224;2023-04-12T08:25:41;6.97;;;3.60;;
215;SDS011;64590;48.81286795;9.14184224;2023-04-12T08:28:07;5.67;;;3.20;;
215;SDS011;64590;48.81286795;9.14184224;2023-04-12T08:30:35;5.90;;;3.13;;
215;SDS011;64590;48.81286795;9.14184224;2023-04-12T08:33:02;6.30;;;3.30;;
215;SDS011;64590;48.81286795;9.14184224;2023-04-12T08:35:29;7.53;;;3.60;;
215;SDS011;64590;48.81286795;9.14184224;2023-04-12T08:37:55;7.23;;;3.43;;
215;SDS011;64590;48.81286795;9.14184224;2023-04-12T08:40:22;5.73;;;3.37;;
215;SDS011;64590;48.81286795;9.14184224;2023-04-12T08:42:49;7.60;;;3.47;;
215;SDS011;64590;48.81286795;9.14184224;2023-04-12T08:45:17;8.03;;;3.33;;
215;SDS011;64590;48.81286795;9.14184224;2023-04-12T08:47:45;7.60;;;3.50;;
215;SDS011;64590;48.81286795;9.14184224;2023-04-12T08:50:12;9.47;;;3.50;;
215;SDS011;64590;48.81286795;9.14184224;2023-04-12T08:52:38;4.60;;;3.27;;
215;SDS011;64590;48.81286795;9.14184224;2023-04-12T08:55:06;5.70;;;3.50;;
215;SDS011;64590;48.81286795;9.14184224;2023-04-12T08:57:34;8.97;;;3.20;;
215;SDS011;64590;48.81286795;9.14184224;2023-04-12T09:00:02;5.20;;;3.37;;
215;SDS011;64590;48.81286795;9.14184224;2023-04-12T09:02:29;5.80;;;3.53;;
215;SDS011;64590;48.81286795;9.14184224;2023-04-12T09:04:57;7.60;;;3.33;;
215;SDS011;64590;48.81286795;9.14184224;2023-04-12T09:07:24;9.27;;;3.37;;
215;SDS011;64590;48.81286795;9.14184224;2023-04-12T09:09:52;6.07;;;3.47;;
215;SDS011;64590;48.81286795;9.14184224;2023-04-12T09:12:19;6.17;;;3.40;;
215;SDS011;64590;48.81286795;9.14184224;2023-04-12T09:14:48;5.83;;;3.50;;
215;SDS011;64590;48.81286795;9.14184224;2023-04-12T09:17:30;6.37;;;3.60;;
215;SDS011;64590;48.81286795;9.14184224;2023-04-12T09:19:59;5.73;;;3.50;;
215;SDS011;64590;48.81286795;9.14184224;2023-04-12T09:22:32;6.80;;;3.20;;
215;SDS011;64590;48.81286795;9.14184224;2023-04-12T09:24:59;8.23;;;3.50;;
215;SDS011;64590;48.81286795;9.14184224;2023-04-12T09:27:26;7.00;;;3.83;;
215;SDS011;64590;48.81286795;9.14184224;2023-04-12T09:32:46;6.90;;;3.47;;
215;SDS011;64590;48.81286795;9.14184224;2023-04-12T09:35:15;8.87;;;3.23;;
215;SDS011;64590;48.81286795;9.14184224;2023-04-12T09:37:41;7.30;;;3.20;;
215;SDS011;64590;48.81286795;9.14184224;2023-04-12T09:40:08;10.50;;;3.60;;
215;SDS011;64590;48.81286795;9.14184224;2023-04-12T09:42:49;9.10;;;4.00;;
215;SDS011;64590;48.81286795;9.14184224;2023-04-12T09:45:17;8.17;;;4.27;;
215;SDS011;64590;48.81286795;9.14184224;2023-04-12T09:47:45;5.73;;;3.30;;
215;SDS011;64590;48.81286795;9.14184224;2023-04-12T09:50:19;9.30;;;4.90;;
215;SDS011;64590;48.81286795;9.14184224;2023-04-12T09:52:47;9.80;;;3.43;;
215;SDS011;64590;48.81286795;9.14184224;2023-04-12T09:55:14;6.03;;;2.97;;
215;SDS011;64590;48.81286795;9.14184224;2023-04-12T09:57:41;8.03;;;3.33;;
215;SDS011;64590;48.81286795;9.14184224;2023-04-12T10:00:09;10.23;;;3.60;;
215;SDS011;64590;48.81286795;9.14184224;2023-04-12T10:02:41;8.73;;;4.03;;
215;SDS011;64590;48.81286795;9.14184224;2023-04-12T10:05:09;9.30;;;3.40;;
215;SDS011;64590;48.81286795;9.14184224;2023-04-12T10:07:39;9.13;;;3.50;;
215;SDS011;64590;48.81286795;9.14184224;2023-04-12T10:10:07;7.10;;;3.80;;
215;SDS011;64590;48.81286795;9.14184224;2023-04-12T10:12:36;6.77;;;3.80;;
215;SDS011;64590;48.81286795;9.14184224;2023-04-12T10:15:04;9.37;;;3.57;;
215;SDS011;64590;48.81286795;9.14184224;2023-04-12T10:17:31;6.40;;;3.43;;
215;SDS011;64590;48.81286795;9.14184224;2023-04-12T10:19:59;5.33;;;3.00;;
215;SDS011;64590;48.81286795;9.14184224;2023-04-12T10:22:26;5.20;;;2.90;;
215;SDS011;64590;48.81286795;9.14184224;2023-04-12T10:24:55;8.70;;;3.20;;
215;SDS011;64590;48.81286795;9.14184224;2023-04-12T10:27:25;8.07;;;3.37;;
215;SDS011;64590;48.81286795;9.14184224;2023-04-12T10:29:52;4.90;;;2.90;;
215;SDS011;64590;48.81286795;9.14184224;2023-04-12T10:32:20;6.53;;;3.50;;
215;SDS011;64590;48.81286795;9.14184224;2023-04-12T10:34:51;5.13;;;2.80;;
215;SDS011;64590;48.81286795;9.14184224;2023-04-12T10:37:18;10.30;;;3.47;;
215;SDS011;64590;48.81286795;9.14184224;2023-04-12T10:39:50;7.10;;;3.10;;
215;SDS011;64590;48.81286795;9.14184224;2023-04-12T10:42:28;7.47;;;3.20;;
215;SDS011;64590;48.81286795;9.14184224;2023-04-12T10:48:01;5.37;;;2.83;;
215;SDS011;64590;48.81286795;9.14184224;2023-04-12T10:50:28;5.80;;;3.13;;
215;SDS011;64590;48.81286795;9.14184224;2023-04-12T10:56:59;5.80;;;2.97;;
215;SDS011;64590;48.81286795;9.14184224;2023-04-12T10:59:52;9.47;;;3.00;;
215;SDS011;64590;48.81286795;9.14184224;2023-04-12T11:02:20;5.83;;;2.87;;
215;SDS011;64590;48.81286795;9.14184224;2023-04-12T11:05:03;7.30;;;2.97;;
215;SDS011;64590;48.81286795;9.14184224;2023-04-12T11:07:51;5.10;;;2.80;;
215;SDS011;64590;48.81286795;9.14184224;2023-04-12T11:10:52;9.00;;;2.60;;
215;SDS011;64590;48.81286795;9.14184224;2023-04-12T11:13:33;6.73;;;2.80;;
215;SDS011;64590;48.81286795;9.14184224;2023-04-12T11:16:00;8.20;;;2.80;;
215;SDS011;64590;48.81286795;9.14184224;2023-04-12T11:18:28;6.40;;;2.80;;
215;SDS011;64590;48.81286795;9.14184224;2023-04-12T11:20:56;6.40;;;2.90;;
215;SDS011;64590;48.81286795;9.14184224;2023-04-12T11:23:23;4.13;;;2.40;;
215;SDS011;64590;48.81286795;9.14184224;2023-04-12T11:25:50;4.10;;;2.40;;
215;SDS011;64590;48.81286795;9.14184224;2023-04-12T11:28:19;3.70;;;2.40;;
215;SDS011;64590;48.81286795;9.14184224;2023-04-12T11:30:48;5.30;;;2.40;;
215;SDS011;64590;48.81286795;9.14184224;2023-04-12T11:33:29;8.40;;;2.60;;
215;SDS011;64590;48.81286795;9.14184224;2023-04-12T11:35:57;5.00;;;2.40;;
215;SDS011;64590;48.81286795;9.14184224;2023-04-12T11:38:23;7.70;;;2.60;;
215;SDS011;64590;48.81286795;9.14184224;2023-04-12T11:40:50;3.70;;;2.23;;
215;SDS011;64590;48.81286795;9.14184224;2023-04-12T11:43:17;4.83;;;2.30;;
215;SDS011;64590;48.81286795;9.14184224;2023-04-12T11:45:46;4.90;;;2.37;;
215;SDS011;64590;48.81286795;9.14184224;2023-04-12T11:48:12;7.60;;;2.63;;
215;SDS011;64590;48.81286795;9.14184224;2023-04-12T11:50:39;5.87;;;2.50;;
215;SDS011;64590;48.81286795;9.14184224;2023-04-12T11:53:09;4.30;;;2.20;;
215;SDS011;64590;48.81286795;9.14184224;2023-04-12T11:55:37;3.90;;;1.90;;
215;SDS011;64590;48.81286795;9.14184224;2023-04-12T11:58:03;3.93;;;2.20;;
215;SDS011;64590;48.81286795;9.14184224;2023-04-12T12:00:31;4.70;;;2.10;;
215;SDS011;64590;48.81286795;9.14184224;2023-04-12T12:02:58;5.47;;;2.30;;
215;SDS011;64590;48.81286795;9.14184224;2023-04-12T12:05:25;5.87;;;2.30;;
215;SDS011;64590;48.81286795;9.14184224;2023-04-12T12:07:52;4.00;;;2.10;;
215;SDS011;64590;48.81286795;9.14184224;2023-04-12T12:10:19;3.83;;;2.13;;
215;SDS011;64590;48.81286795;9.14184224;2023-04-12T12:12:46;3.50;;;2.00;;
215;SDS011;64590;48.81286795;9.14184224;2023-04-12T12:15:13;4.23;;;1.93;;
215;SDS011;64590;48.81286795;9.14184224;2023-04-12T12:17:41;6.50;;;2.07;;
215;SDS011;64590;48.81286795;9.14184224;2023-04-12T12:20:17;4.20;;;1.90;;
215;SDS011;64590;48.81286795;9.14184224;2023-04-12T12:22:45;3.87;;;1.90;;
215;SDS011;64590;48.81286795;9.14184224;2023-04-12T12:25:12;4.83;;;2.20;;
215;SDS011;64590;48.81286795;9.14184224;2023-04-12T12:27:38;3.70;;;1.90;;
215;SDS011;64590;48.81286795;9.14184224;2023-04-12T12:30:08;13.83;;;2.20;;
215;SDS011;64590;48.81286795;9.14184224;2023-04-12T12:32:37;4.10;;;2.03;;
215;SDS011;64590;48.81286795;9.14184224;2023-04-12T12:35:08;4.27;;;2.10;;
215;SDS011;64590;48.81286795;9.14184224;2023-04-12T12:37:35;3.97;;;2.07;;
215;SDS011;64590;48.81286795;9.14184224;2023-04-12T12:40:03;5.07;;;1.97;;
215;SDS011;64590;48.81286795;9.14184224;2023-04-12T12:42:35;4.80;;;2.20;;
215;SDS011;64590;48.81286795;9.14184224;2023-04-12T12:45:03;3.60;;;2.00;;
215;SDS011;64590;48.81286795;9.14184224;2023-04-12T12:47:31;8.77;;;2.60;;
215;SDS011;64590;48.81286795;9.14184224;2023-04-12T12:49:58;6.67;;;3.00;;
215;SDS011;64590;48.81286795;9.14184224;2023-04-12T12:55:19;4.43;;;2.17;;
215;SDS011;64590;48.81286795;9.14184224;2023-04-12T12:57:47;4.43;;;2.20;;
215;SDS011;64590;48.81286795;9.14184224;2023-04-12T13:00:15;7.97;;;2.30;;
215;SDS011;64590;48.81286795;9.14184224;2023-04-12T13:02:44;5.77;;;2.10;;
215;SDS011;64590;48.81286795;9.14184224;2023-04-12T13:05:12;3.87;;;2.17;;
215;SDS011;64590;48.81286795;9.14184224;2023-04-12T13:07:39;4.53;;;2.00;;
215;SDS011;64590;48.81286795;9.14184224;2023-04-12T13:10:07;4.37;;;2.00;;
215;SDS011;64590;48.81286795;9.14184224;2023-04-12T13:12:34;3.87;;;2.23;;
215;SDS011;64590;48.81286795;9.14184224;2023-04-12T13:15:00;5.20;;;1.90;;
215;SDS011;64590;48.81286795;9.14184224;2023-04-12T13:17:27;3.57;;;2.07;;
215;SDS011;64590;48.81286795;9.14184224;2023-04-12T13:19:54;4.43;;;2.30;;
215;SDS011;64590;48.81286795;9.14184224;2023-04-12T13:22:21;5.73;;;2.20;;
215;SDS011;64590;48.81286795;9.14184224;2023-04-12T13:24:48;5.00;;;2.70;;
215;SDS011;64590;48.81286795;9.14184224;2023-04-12T13:27:16;4.97;;;2.10;;
215;SDS011;64590;48.81286795;9.14184224;2023-04-12T13:29:42;3.20;;;2.00;;
215;SDS011;64590;48.81286795;9.14184224;2023-04-12T13:32:09;4.10;;;2.00;;